Time;durP1;ratioP1;P1;durP2;ratioP2;P2;SDS_P1;SDS_P2;PMS_P1;PMS_P2;Temp;Humidity;BMP_temperature;BMP_pressure;BME280_temperature;BME280_humidity;BME280_pressure;Samples;Min_cycle;Max_cycle;Signal;HPM_P1;HPM_P2
2021/04/09 00:00:29;;;;;;;9.05;7.42;;;;;;;1.06;90.54;99639.77;1776502;79;21137;-56
2021/04/09 00:02:57;;;;;;;8.43;6.58;;;;;;;1.07;90.71;99642.27;1776548;79;20966;-55
2021/04/09 00:05:26;;;;;;;7.78;7.03;;;;;;;1.10;90.76;99636.82;1776603;79;20918;-56
2021/04/09 00:07:57;;;;;;;9.43;7.65;;;;;;;1.10;90.69;99641.22;1778419;79;20918;-58
2021/04/09 00:10:26;;;;;;;7.50;6.55;;;;;;;1.09;90.81;99640.88;1776600;79;21361;-55
2021/04/09 00:12:54;;;;;;;10.65;7.28;;;;;;;1.10;90.78;99643.84;1776601;79;21124;-58
2021/04/09 00:15:21;;;;;;;9.50;8.23;;;;;;;1.07;90.61;99646.20;1776817;79;21163;-55
2021/04/09 00:17:52;;;;;;;9.55;8.10;;;;;;;1.05;90.68;99646.78;1786522;79;21068;-55
2021/04/09 00:20:22;;;;;;;10.68;7.47;;;;;;;1.06;90.80;99647.16;1777286;79;21160;-54
2021/04/09 00:22:50;;;;;;;10.75;8.60;;;;;;;1.07;90.79;99647.51;1798787;79;21332;-55
2021/04/09 00:25:19;;;;;;;11.65;8.45;;;;;;;1.05;90.65;99648.09;1776764;79;21165;-55
2021/04/09 00:27:47;;;;;;;11.05;8.85;;;;;;;1.05;90.70;99645.94;1797156;79;21527;-58
2021/04/09 00:30:24;;;;;;;8.88;7.75;;;;;;;1.06;90.74;99656.33;1787864;79;21163;-55
2021/04/09 00:32:51;;;;;;;9.48;7.58;;;;;;;1.06;90.88;99655.48;1792829;79;21092;-55
2021/04/09 00:35:18;;;;;;;9.63;8.30;;;;;;;1.05;90.95;99661.20;1771917;79;21825;-55
2021/04/09 00:37:46;;;;;;;10.55;8.63;;;;;;;1.03;90.92;99657.84;1774505;79;21192;-54
2021/04/09 00:40:15;;;;;;;9.95;8.93;;;;;;;1.00;90.97;99665.91;1774017;79;21036;-55
2021/04/09 00:42:42;;;;;;;9.65;8.65;;;;;;;0.99;91.00;99666.03;1773761;79;21538;-55
2021/04/09 00:45:11;;;;;;;10.48;7.92;;;;;;;0.98;91.13;99670.89;1798714;79;21080;-59
2021/04/09 00:47:38;;;;;;;9.55;8.55;;;;;;;0.97;91.32;99666.59;1787320;79;21359;-57
2021/04/09 00:50:08;;;;;;;12.65;8.23;;;;;;;0.97;91.33;99665.28;1791690;79;20954;-56
2021/04/09 00:52:36;;;;;;;11.18;9.15;;;;;;;0.98;91.31;99672.20;1774794;79;21528;-59
2021/04/09 00:55:07;;;;;;;10.30;7.78;;;;;;;0.96;91.42;99665.77;1763903;79;20941;-56
2021/04/09 00:57:35;;;;;;;10.40;8.98;;;;;;;0.96;91.48;99671.48;1774756;79;21092;-57
2021/04/09 01:00:06;;;;;;;12.50;9.68;;;;;;;0.97;91.52;99675.76;1791403;79;21201;-56
2021/04/09 01:02:34;;;;;;;13.95;9.95;;;;;;;0.97;91.42;99680.53;1797131;79;20915;-59
2021/04/09 01:05:03;;;;;;;10.50;9.40;;;;;;;0.97;91.45;99675.76;1782468;79;21195;-56
2021/04/09 01:07:30;;;;;;;13.38;10.18;;;;;;;0.99;91.41;99681.75;1776180;79;21203;-55
2021/04/09 01:09:59;;;;;;;11.43;8.58;;;;;;;0.98;91.19;99686.61;1784702;79;21011;-55
2021/04/09 01:12:28;;;;;;;9.85;8.63;;;;;;;0.96;91.15;99691.13;1772655;79;21377;-55
2021/04/09 01:14:55;;;;;;;9.65;8.65;;;;;;;0.91;91.13;99690.14;1792337;79;21096;-55
2021/04/09 01:17:50;;;;;;;9.90;8.93;;;;;;;0.90;91.16;99696.31;1792021;79;21005;-55
2021/04/09 01:20:47;;;;;;;11.35;8.53;;;;;;;0.87;91.15;99703.53;1777048;79;21152;-58
2021/04/09 01:23:52;;;;;;;10.88;8.20;;;;;;;0.85;91.34;99703.64;1773897;79;21138;-56
2021/04/09 01:27:02;;;;;;;10.00;9.00;;;;;;;0.82;91.33;99706.93;1720334;82;21372;-57
2021/04/09 01:30:16;;;;;;;11.05;9.53;;;;;;;0.78;91.46;99708.94;1725806;82;21153;-54
2021/04/09 01:32:44;;;;;;;12.15;9.90;;;;;;;0.78;91.50;99708.09;1772491;79;21040;-58
2021/04/09 01:35:14;;;;;;;11.38;9.20;;;;;;;0.78;91.66;99712.87;1763385;79;21138;-57
2021/04/09 01:37:52;;;;;;;12.98;9.80;;;;;;;0.78;91.75;99722.03;1775890;79;21550;-56
2021/04/09 01:40:23;;;;;;;15.48;11.15;;;;;;;0.77;91.91;99729.97;1781424;79;21377;-55
2021/04/09 01:42:53;;;;;;;13.38;9.70;;;;;;;0.73;92.02;99730.64;1783557;79;21020;-55
2021/04/09 01:45:21;;;;;;;13.25;11.78;;;;;;;0.73;92.11;99738.99;1763226;79;21131;-55
2021/04/09 01:47:51;;;;;;;13.28;11.12;;;;;;;0.71;92.31;99742.16;1762115;79;21119;-56
2021/04/09 01:50:19;;;;;;;12.05;9.68;;;;;;;0.70;92.41;99733.95;1783690;79;21177;-55
2021/04/09 01:52:48;;;;;;;12.35;11.12;;;;;;;0.68;92.55;99738.46;1808937;79;21342;-58
2021/04/09 01:55:16;;;;;;;11.95;10.60;;;;;;;0.67;92.57;99745.47;1807904;79;20887;-56
2021/04/09 01:57:44;;;;;;;12.28;10.10;;;;;;;0.69;92.63;99747.97;1763344;79;21076;-56
2021/04/09 02:00:18;;;;;;;11.10;10.00;;;;;;;0.68;92.53;99753.67;1777988;79;21051;-54
2021/04/09 02:02:48;;;;;;;15.88;10.45;;;;;;;0.67;92.49;99752.48;1771460;79;21485;-56
2021/04/09 02:05:27;;;;;;;12.13;10.50;;;;;;;0.66;92.54;99756.87;1765219;79;21253;-54
2021/04/09 02:07:57;;;;;;;13.40;11.10;;;;;;;0.63;92.54;99761.49;1793042;79;21079;-55
2021/04/09 02:10:26;;;;;;;13.55;11.30;;;;;;;0.59;92.61;99756.92;1765815;79;21163;-55
2021/04/09 02:12:53;;;;;;;12.30;10.35;;;;;;;0.58;92.78;99754.77;1788007;79;21467;-56
2021/04/09 02:15:24;;;;;;;14.93;11.08;;;;;;;0.61;92.98;99761.58;1791095;79;21139;-57
2021/04/09 02:17:52;;;;;;;12.00;10.43;;;;;;;0.63;93.04;99765.42;1782124;79;21366;-57
2021/04/09 02:20:21;;;;;;;13.32;10.78;;;;;;;0.63;92.92;99764.46;1795771;77;21128;-57
2021/04/09 02:22:51;;;;;;;12.50;10.55;;;;;;;0.64;92.90;99767.92;1802852;79;21016;-57
2021/04/09 02:25:21;;;;;;;12.88;10.18;;;;;;;0.63;92.84;99773.28;1794997;77;21606;-56
2021/04/09 02:27:50;;;;;;;12.93;10.00;;;;;;;0.63;92.76;99773.28;1805046;79;21044;-56
2021/04/09 02:30:21;;;;;;;13.48;10.93;;;;;;;0.60;92.81;99772.98;1785931;78;21199;-56
2021/04/09 02:32:49;;;;;;;13.40;10.68;;;;;;;0.57;92.75;99776.64;1776486;79;21172;-55
2021/04/09 02:35:17;;;;;;;11.63;9.83;;;;;;;0.55;92.77;99774.59;1779034;79;20978;-56
2021/04/09 02:37:46;;;;;;;11.43;10.00;;;;;;;0.52;92.76;99773.48;1766232;79;21583;-56
2021/04/09 02:40:17;;;;;;;12.55;9.78;;;;;;;0.50;92.92;99781.91;1765665;78;21174;-60
2021/04/09 02:42:47;;;;;;;10.03;8.75;;;;;;;0.50;93.05;99784.99;1774501;78;22130;-55
2021/04/09 02:45:15;;;;;;;12.13;9.25;;;;;;;0.46;93.02;99777.83;1780950;79;21120;-55
2021/04/09 02:47:43;;;;;;;10.32;9.30;;;;;;;0.44;93.10;99783.61;1782240;79;21566;-55
2021/04/09 02:50:29;;;;;;;12.03;9.13;;;;;;;0.43;93.18;99785.03;1784482;79;21109;-55
2021/04/09 02:53:08;;;;;;;10.93;9.50;;;;;;;0.39;93.14;99785.69;1766732;79;21157;-55
2021/04/09 02:55:40;;;;;;;14.78;8.83;;;;;;;0.35;93.35;99790.77;1778536;79;21201;-56
2021/04/09 02:58:07;;;;;;;10.05;8.45;;;;;;;0.34;93.56;99787.77;1774696;79;21144;-56
2021/04/09 03:00:36;;;;;;;11.10;9.35;;;;;;;0.34;93.64;99797.42;1765216;81;21061;-56
2021/04/09 03:03:06;;;;;;;13.18;9.08;;;;;;;0.31;93.63;99800.23;1774538;79;20917;-55
2021/04/09 03:05:34;;;;;;;9.50;8.50;;;;;;;0.32;93.70;99803.20;1781438;79;20946;-57
2021/04/09 03:08:02;;;;;;;12.88;9.20;;;;;;;0.31;93.68;99809.39;1778159;78;21382;-56
2021/04/09 03:10:30;;;;;;;10.95;9.15;;;;;;;0.29;93.79;99812.08;1768358;79;20994;-56
2021/04/09 03:12:58;;;;;;;14.35;10.45;;;;;;;0.27;93.87;99811.81;1780231;79;21140;-56
2021/04/09 03:15:46;;;;;;;10.45;9.03;;;;;;;0.27;93.95;99818.35;1783133;79;20970;-56
2021/04/09 03:18:14;;;;;;;11.65;10.45;;;;;;;0.27;94.06;99817.89;1760069;80;21052;-57
2021/04/09 03:20:42;;;;;;;10.08;8.88;;;;;;;0.27;94.12;99827.05;1771424;79;21327;-55
2021/04/09 03:23:09;;;;;;;11.53;9.28;;;;;;;0.28;94.23;99826.13;1766980;79;21061;-55
2021/04/09 03:25:37;;;;;;;11.22;9.00;;;;;;;0.29;94.21;99824.32;1771885;79;20922;-56
2021/04/09 03:28:06;;;;;;;11.30;9.15;;;;;;;0.31;94.40;99833.78;1767482;79;21037;-55
2021/04/09 03:30:36;;;;;;;10.65;9.33;;;;;;;0.36;94.46;99834.80;1765799;79;21444;-53
2021/04/09 03:33:04;;;;;;;9.13;8.13;;;;;;;0.39;94.41;99831.48;1771357;79;21361;-57
2021/04/09 03:35:33;;;;;;;10.18;9.18;;;;;;;0.40;94.23;99833.18;1776214;79;21108;-58
2021/04/09 03:38:02;;;;;;;11.50;9.15;;;;;;;0.39;94.13;99840.66;1779553;79;21144;-56
2021/04/09 03:40:30;;;;;;;10.23;9.13;;;;;;;0.39;94.16;99848.50;1774487;79;21001;-58
2021/04/09 03:42:58;;;;;;;11.40;10.30;;;;;;;0.38;94.28;99840.30;1779741;79;21065;-55
2021/04/09 03:45:25;;;;;;;10.68;9.43;;;;;;;0.43;94.42;99848.70;1774075;79;21373;-54
2021/04/09 03:47:54;;;;;;;10.45;8.75;;;;;;;0.50;94.42;99851.75;1768426;78;21025;-56
2021/04/09 03:50:22;;;;;;;11.28;9.63;;;;;;;0.55;94.37;99843.97;1771635;79;21145;-55
2021/04/09 03:52:52;;;;;;;11.75;9.60;;;;;;;0.61;94.20;99848.83;1776361;78;21144;-56
2021/04/09 03:55:20;;;;;;;9.38;8.08;;;;;;;0.65;94.08;99850.79;1783773;78;21175;-56
2021/04/09 03:57:50;;;;;;;9.45;8.53;;;;;;;0.71;94.02;99854.30;1782226;78;21196;-56
2021/04/09 04:00:19;;;;;;;12.33;9.63;;;;;;;0.76;94.00;99856.15;1772997;78;21124;-57
2021/04/09 04:02:46;;;;;;;12.70;9.38;;;;;;;0.81;93.83;99867.16;1766820;79;20998;-56
2021/04/09 04:05:16;;;;;;;11.25;10.05;;;;;;;0.87;93.79;99865.93;1775538;78;21069;-55
2021/04/09 04:07:46;;;;;;;12.40;10.00;;;;;;;0.98;93.75;99870.00;1776452;79;21176;-56
2021/04/09 04:10:16;;;;;;;11.22;9.78;;;;;;;1.09;93.68;99874.08;1772088;79;21199;-56
2021/04/09 04:12:44;;;;;;;9.85;8.85;;;;;;;1.20;93.41;99880.27;1780708;79;20970;-58
2021/04/09 04:15:11;;;;;;;11.73;9.33;;;;;;;1.31;93.03;99884.80;1768056;79;21119;-59
2021/04/09 04:17:39;;;;;;;11.20;8.78;;;;;;;1.38;92.59;99886.09;1775263;79;21156;-56
2021/04/09 04:20:08;;;;;;;11.57;8.08;;;;;;;1.43;92.17;99883.16;1768371;79;21065;-56
2021/04/09 04:22:35;;;;;;;10.90;8.75;;;;;;;1.45;91.88;99883.88;1789327;79;22172;-55
2021/04/09 04:25:05;;;;;;;14.28;10.35;;;;;;;1.46;91.54;99890.81;1777652;79;21460;-57
2021/04/09 04:27:33;;;;;;;12.20;9.48;;;;;;;1.48;91.45;99892.86;1793389;79;20974;-56
2021/04/09 04:30:00;;;;;;;12.63;9.88;;;;;;;1.50;91.37;99896.21;1776443;79;21127;-59
2021/04/09 04:32:28;;;;;;;12.43;8.80;;;;;;;1.54;91.21;99899.02;1793060;79;21166;-56
2021/04/09 04:34:55;;;;;;;11.28;9.35;;;;;;;1.58;91.04;99901.31;1802022;77;21247;-56
2021/04/09 04:37:24;;;;;;;8.88;8.05;;;;;;;1.63;90.83;99901.00;1804726;79;21132;-57
2021/04/09 04:39:52;;;;;;;11.10;9.43;;;;;;;1.66;90.50;99900.80;1801257;79;21190;-58
2021/04/09 04:42:20;;;;;;;11.00;9.58;;;;;;;1.63;90.38;99908.87;1784713;77;21159;-59
2021/04/09 04:44:47;;;;;;;13.90;10.58;;;;;;;1.64;90.57;99910.55;1782828;77;21068;-56
2021/04/09 04:47:15;;;;;;;12.20;10.15;;;;;;;1.66;90.38;99916.06;1792731;79;21195;-56
2021/04/09 04:49:43;;;;;;;13.75;11.70;;;;;;;1.68;90.42;99915.95;1804984;79;21179;-55
2021/04/09 04:52:10;;;;;;;17.35;13.62;;;;;;;1.71;90.34;99922.30;1804773;77;21092;-54
2021/04/09 04:54:38;;;;;;;16.97;12.23;;;;;;;1.69;90.28;99924.20;1790226;79;21277;-54
2021/04/09 04:57:06;;;;;;;16.90;12.95;;;;;;;1.74;90.53;99923.41;1798232;79;21128;-56
2021/04/09 04:59:34;;;;;;;19.90;14.07;;;;;;;1.80;90.64;99922.97;1790033;79;21355;-55
2021/04/09 05:02:01;;;;;;;19.32;13.68;;;;;;;1.86;90.51;99927.81;1787745;79;21024;-56
2021/04/09 05:04:29;;;;;;;22.60;14.73;;;;;;;1.94;90.77;99920.26;1798315;79;21108;-57
2021/04/09 05:06:56;;;;;;;19.17;13.55;;;;;;;2.04;90.83;99927.86;1790681;79;21115;-59
2021/04/09 05:09:24;;;;;;;16.87;12.45;;;;;;;2.14;90.61;99928.90;1797149;79;21112;-58
2021/04/09 05:11:51;;;;;;;16.75;12.70;;;;;;;2.27;90.58;99927.10;1795427;79;21356;-60
2021/04/09 05:14:19;;;;;;;17.37;13.35;;;;;;;2.36;89.98;99926.94;1790434;79;21033;-55
2021/04/09 05:16:48;;;;;;;15.90;11.95;;;;;;;2.41;89.63;99926.98;1788898;79;21096;-58
2021/04/09 05:19:15;;;;;;;16.67;12.68;;;;;;;2.50;89.47;99929.45;1791689;79;21420;-58
2021/04/09 05:21:46;;;;;;;24.18;15.63;;;;;;;2.60;88.81;99936.19;1790983;79;20917;-57
2021/04/09 05:24:14;;;;;;;26.55;16.77;;;;;;;2.62;88.23;99932.50;1789685;79;21192;-57
2021/04/09 05:26:42;;;;;;;21.12;15.55;;;;;;;2.70;88.23;99929.33;1792752;79;21108;-56
2021/04/09 05:29:12;;;;;;;26.55;16.37;;;;;;;2.79;87.70;99931.31;1791466;79;21182;-56
2021/04/09 05:31:39;;;;;;;21.87;15.75;;;;;;;2.86;87.34;99933.37;1784615;79;21206;-56
2021/04/09 05:34:07;;;;;;;17.45;12.70;;;;;;;3.00;87.25;99936.30;1798283;79;21064;-56
2021/04/09 05:36:34;;;;;;;16.67;12.05;;;;;;;3.13;86.49;99934.45;1798187;78;21352;-58
2021/04/09 05:39:01;;;;;;;14.63;11.33;;;;;;;3.24;86.18;99936.30;1790708;78;21139;-59
2021/04/09 05:41:29;;;;;;;15.75;13.18;;;;;;;3.34;85.46;99938.60;1789808;78;21187;-56
2021/04/09 05:43:57;;;;;;;15.15;11.48;;;;;;;3.48;85.19;99936.64;1786475;79;21052;-56
2021/04/09 05:46:24;;;;;;;11.83;10.63;;;;;;;3.66;84.20;99942.31;1795656;78;21085;-55
2021/04/09 05:48:53;;;;;;;13.93;10.40;;;;;;;3.76;83.23;99948.55;1791821;79;21308;-55
2021/04/09 05:51:20;;;;;;;11.25;10.00;;;;;;;3.93;82.81;99943.34;1787566;78;21175;-55
2021/04/09 05:53:48;;;;;;;11.15;10.00;;;;;;;4.11;81.94;99944.56;1790946;79;21118;-56
2021/04/09 05:56:16;;;;;;;12.45;9.93;;;;;;;4.29;81.07;99950.56;1785312;79;21565;-57
2021/04/09 05:58:44;;;;;;;10.68;9.65;;;;;;;4.42;80.35;99945.17;1786233;79;21123;-56
2021/04/09 06:01:12;;;;;;;16.20;9.93;;;;;;;4.60;79.44;99954.27;1782299;79;21384;-56
2021/04/09 06:03:40;;;;;;;14.05;10.23;;;;;;;4.81;78.57;99954.35;1786282;79;21573;-56
2021/04/09 06:06:08;;;;;;;12.03;10.80;;;;;;;5.07;77.38;99957.05;1784490;78;21048;-55
2021/04/09 06:08:36;;;;;;;11.80;10.35;;;;;;;5.24;76.32;99951.74;1791138;79;21123;-59
2021/04/09 06:11:05;;;;;;;14.75;10.95;;;;;;;5.34;75.39;99958.78;1802765;79;21186;-57
2021/04/09 06:13:32;;;;;;;12.68;11.30;;;;;;;5.48;75.18;99952.34;1786431;79;21204;-56
2021/04/09 06:16:00;;;;;;;15.20;12.30;;;;;;;5.70;74.72;99960.66;1789007;79;21174;-56
2021/04/09 06:18:27;;;;;;;12.53;10.55;;;;;;;5.83;73.21;99956.86;1783397;79;21155;-57
2021/04/09 06:20:55;;;;;;;15.53;11.08;;;;;;;5.85;72.73;99956.75;1784471;79;21641;-58
2021/04/09 06:23:22;;;;;;;16.90;12.40;;;;;;;5.85;72.83;99965.52;1783657;79;21301;-55
2021/04/09 06:25:50;;;;;;;13.18;11.70;;;;;;;5.93;72.87;99968.36;1782318;79;21376;-59
2021/04/09 06:28:19;;;;;;;14.35;11.80;;;;;;;6.02;71.70;99968.88;1746612;80;21167;-57
2021/04/09 06:30:46;;;;;;;15.72;11.78;;;;;;;5.95;72.05;99962.45;1717574;82;21034;-58
2021/04/09 06:33:15;;;;;;;16.20;11.03;;;;;;;5.99;71.87;99966.53;1766166;79;21179;-56
2021/04/09 06:35:42;;;;;;;14.83;10.93;;;;;;;5.94;71.98;99977.97;1771650;78;21120;-59
2021/04/09 06:38:10;;;;;;;15.48;12.80;;;;;;;5.99;71.82;99977.09;1773574;79;21361;-56
2021/04/09 06:40:37;;;;;;;16.42;11.45;;;;;;;5.95;71.42;99973.50;1765262;79;21559;-56
2021/04/09 06:43:05;;;;;;;15.40;11.80;;;;;;;5.94;71.66;99985.05;1773186;79;21104;-55
2021/04/09 06:45:37;;;;;;;14.80;12.47;;;;;;;5.99;71.55;99983.70;1768519;79;20931;-58
2021/04/09 06:48:07;;;;;;;20.05;13.83;;;;;;;5.97;71.15;99985.60;1776135;79;21065;-57
2021/04/09 06:50:34;;;;;;;16.60;12.98;;;;;;;5.77;71.07;99982.45;1769285;79;21458;-59
2021/04/09 06:53:02;;;;;;;18.70;14.53;;;;;;;5.65;71.48;99990.55;1767886;79;20990;-57
2021/04/09 06:55:30;;;;;;;14.83;12.10;;;;;;;5.54;71.86;99994.08;1769184;79;21112;-59
2021/04/09 06:58:00;;;;;;;18.92;12.03;;;;;;;5.50;72.53;99996.62;1765312;79;21200;-58
2021/04/09 07:00:32;;;;;;;13.32;11.50;;;;;;;5.49;72.69;100000.21;1766206;79;21117;-57
2021/04/09 07:03:00;;;;;;;14.28;11.53;;;;;;;5.48;72.74;99998.52;1765487;79;21355;-56
2021/04/09 07:05:28;;;;;;;17.52;11.95;;;;;;;5.45;72.70;99996.98;1770254;79;21928;-60
2021/04/09 07:07:59;;;;;;;15.95;11.83;;;;;;;5.44;72.98;100002.39;1765700;79;21112;-59
2021/04/09 07:10:27;;;;;;;14.98;12.05;;;;;;;5.43;72.84;99999.39;1765377;79;21103;-56
2021/04/09 07:13:04;;;;;;;16.90;12.82;;;;;;;5.40;73.05;99994.35;1765291;79;21574;-57
2021/04/09 07:15:41;;;;;;;16.90;12.55;;;;;;;5.35;73.16;99998.69;1765432;79;22303;-57
2021/04/09 07:18:09;;;;;;;13.73;11.13;;;;;;;5.39;73.23;100000.61;1766322;79;20978;-56
2021/04/09 07:20:37;;;;;;;13.35;11.60;;;;;;;5.41;73.32;100001.31;1765648;79;21536;-55
2021/04/09 07:23:08;;;;;;;17.73;13.05;;;;;;;5.49;73.29;99989.19;1780486;79;21552;-58
2021/04/09 07:25:37;;;;;;;14.33;11.38;;;;;;;5.63;73.21;99992.02;1703451;83;21156;-55
2021/04/09 07:28:21;;;;;;;13.83;12.43;;;;;;;5.81;72.70;99997.09;1714163;82;21453;-58
2021/04/09 07:30:56;;;;;;;21.40;13.53;;;;;;;6.01;72.37;99992.80;1715577;81;21177;-59
2021/04/09 07:33:25;;;;;;;16.85;13.83;;;;;;;6.32;71.87;99993.67;1755937;80;21207;-56
2021/04/09 07:36:01;;;;;;;13.78;11.40;;;;;;;6.70;71.09;99992.55;1755771;80;21657;-57
2021/04/09 07:38:33;;;;;;;13.88;10.05;;;;;;;7.21;69.67;99982.67;1755908;80;21100;-57
2021/04/09 07:41:09;;;;;;;13.28;10.50;;;;;;;7.66;67.75;99986.96;1755842;80;21328;-60
2021/04/09 07:43:41;;;;;;;12.28;10.70;;;;;;;7.97;66.39;99988.47;1755775;80;21195;-57
2021/04/09 07:46:26;;;;;;;12.45;10.90;;;;;;;8.24;65.65;99991.68;1755674;80;21028;-58
2021/04/09 07:49:04;;;;;;;13.70;10.53;;;;;;;8.54;64.86;99983.55;1829572;77;22707;-56
2021/04/09 07:51:33;;;;;;;11.63;10.28;;;;;;;8.74;64.35;99988.75;1790785;78;21084;-57
2021/04/09 07:54:08;;;;;;;12.18;10.58;;;;;;;8.91;63.34;99990.64;1747566;80;21361;-56
2021/04/09 07:56:45;;;;;;;12.78;10.50;;;;;;;8.92;62.58;99997.61;1741645;81;21088;-59
2021/04/09 07:59:12;;;;;;;17.37;11.50;;;;;;;9.02;62.42;99992.59;1747509;81;21093;-59
2021/04/09 08:01:47;;;;;;;14.00;10.65;;;;;;;9.05;61.57;99998.09;1746895;81;21031;-57
2021/04/09 08:04:15;;;;;;;12.25;10.95;;;;;;;9.08;61.53;99996.48;1764462;81;20997;-56
2021/04/09 08:06:43;;;;;;;11.88;10.65;;;;;;;9.09;60.86;99990.20;1759407;81;21387;-57
2021/04/09 08:09:10;;;;;;;13.90;12.43;;;;;;;9.04;60.33;99995.12;1738113;78;20973;-57
2021/04/09 08:11:38;;;;;;;16.02;13.65;;;;;;;8.89;59.98;100000.06;1747992;80;21017;-56
2021/04/09 08:14:15;;;;;;;15.40;12.53;;;;;;;8.74;60.78;99998.04;1734240;82;21148;-56
2021/04/09 08:16:46;;;;;;;15.80;12.45;;;;;;;8.58;60.58;100009.27;1721487;80;21503;-57
2021/04/09 08:19:17;;;;;;;16.67;13.70;;;;;;;8.30;60.93;100002.23;1720894;80;22344;-60
2021/04/09 08:21:52;;;;;;;21.97;15.63;;;;;;;8.12;61.16;100007.41;1723360;81;21641;-60
2021/04/09 08:24:28;;;;;;;27.30;15.95;;;;;;;7.94;61.77;100009.10;1719374;80;21068;-61
2021/04/09 08:26:55;;;;;;;22.42;14.13;;;;;;;7.94;62.26;100005.12;1720590;81;21143;-55
2021/04/09 08:29:24;;;;;;;18.15;13.18;;;;;;;8.00;61.95;100011.20;1717995;81;21568;-58
2021/04/09 08:31:52;;;;;;;14.80;11.35;;;;;;;8.01;61.87;100002.25;1717713;80;22269;-57
2021/04/09 08:34:20;;;;;;;11.68;10.48;;;;;;;7.99;61.90;100004.22;1721174;80;21040;-56
2021/04/09 08:36:50;;;;;;;14.45;10.53;;;;;;;8.02;61.95;100006.59;1723458;80;21052;-57
2021/04/09 08:39:19;;;;;;;10.53;9.43;;;;;;;8.12;61.69;100003.91;1717128;81;21685;-58
2021/04/09 08:41:50;;;;;;;10.72;9.58;;;;;;;8.19;62.45;100005.84;1720289;80;21174;-57
2021/04/09 08:44:19;;;;;;;10.15;9.15;;;;;;;8.37;61.19;99998.86;1713234;82;21612;-58
2021/04/09 08:46:47;;;;;;;10.58;8.85;;;;;;;8.63;61.18;99994.59;1712673;81;21080;-59
2021/04/09 08:49:16;;;;;;;11.12;8.65;;;;;;;8.93;58.51;99998.80;1738936;82;20938;-56
2021/04/09 08:51:44;;;;;;;9.05;8.13;;;;;;;9.03;57.98;99989.45;1733209;82;21155;-56
2021/04/09 08:54:24;;;;;;;8.63;7.53;;;;;;;9.09;57.28;99990.20;1743861;82;21141;-57
2021/04/09 08:56:52;;;;;;;9.60;7.58;;;;;;;9.21;57.15;99992.98;1770523;80;22256;-55
2021/04/09 08:59:41;;;;;;;10.50;8.30;;;;;;;9.49;56.72;99993.27;1775935;80;21155;-57
2021/04/09 09:02:19;;;;;;;10.32;7.30;;;;;;;9.76;56.03;99997.69;1734771;82;21124;-62
2021/04/09 09:05:08;;;;;;;9.73;7.53;;;;;;;9.85;54.79;99992.28;1777514;80;21032;-55
2021/04/09 09:07:54;;;;;;;10.82;7.35;;;;;;;9.98;54.65;99998.55;1741526;80;21107;-55
2021/04/09 09:10:33;;;;;;;7.83;7.03;;;;;;;10.24;53.70;99990.64;1728320;80;21268;-57
2021/04/09 09:13:13;;;;;;;9.10;6.85;;;;;;;10.18;52.64;99988.59;1727099;80;21020;-55
2021/04/09 09:15:54;;;;;;;8.83;6.83;;;;;;;10.13;52.06;99989.55;1721177;80;21001;-56
2021/04/09 09:18:33;;;;;;;8.10;7.25;;;;;;;10.06;52.77;99995.13;1728226;80;21014;-55
2021/04/09 09:21:20;;;;;;;7.58;6.83;;;;;;;10.11;53.14;99983.05;1728245;80;21158;-58
2021/04/09 09:24:18;;;;;;;14.60;7.42;;;;;;;10.25;52.24;99977.17;1707363;81;21483;-60
2021/04/09 09:26:49;;;;;;;9.73;6.50;;;;;;;10.49;52.49;99975.16;1724270;80;21581;-60
2021/04/09 09:29:27;;;;;;;10.15;6.40;;;;;;;11.13;51.95;99958.66;1727107;80;21165;-57
2021/04/09 09:32:06;;;;;;;8.25;5.87;;;;;;;11.84;49.94;99964.75;1731292;80;21199;-59
2021/04/09 09:34:44;;;;;;;9.43;5.90;;;;;;;12.33;47.42;99964.55;1749790;80;21172;-56
2021/04/09 09:37:18;;;;;;;7.72;6.00;;;;;;;12.84;47.54;99965.08;1749582;80;21503;-56
2021/04/09 09:40:05;;;;;;;12.60;6.15;;;;;;;13.49;45.52;99961.09;1746836;80;21612;-57
2021/04/09 09:42:36;;;;;;;7.17;5.85;;;;;;;13.97;43.81;99949.70;1708964;81;21601;-59
2021/04/09 09:45:12;;;;;;;6.92;6.22;;;;;;;14.11;42.32;99952.39;1746481;79;20933;-60
2021/04/09 09:47:44;;;;;;;;;;;;;;;14.04;42.26;99949.29;1728783;80;21131;-58
2021/04/09 09:50:23;;;;;;;8.10;6.87;;;;;;;13.95;41.87;99955.20;1731885;80;21210;-57
2021/04/09 09:53:02;;;;;;;9.35;6.12;;;;;;;13.76;42.06;99951.72;1735329;80;21064;-59
2021/04/09 09:55:41;;;;;;;8.95;7.15;;;;;;;13.46;42.27;99950.75;1724992;80;21668;-57
2021/04/09 09:58:23;;;;;;;12.63;7.50;;;;;;;13.13;42.32;99951.12;1725746;80;21103;-59
2021/04/09 10:01:00;;;;;;;11.22;6.45;;;;;;;12.79;42.68;99948.75;1727687;80;21166;-58
2021/04/09 10:03:37;;;;;;;10.28;6.42;;;;;;;12.70;43.50;99946.60;1731143;80;21389;-57
2021/04/09 10:06:13;;;;;;;9.23;5.80;;;;;;;12.82;42.98;99936.39;1726467;80;21194;-58
2021/04/09 10:08:44;;;;;;;9.33;6.30;;;;;;;12.69;42.11;99943.62;1726345;80;21006;-58
2021/04/09 10:11:18;;;;;;;7.72;5.97;;;;;;;12.43;42.30;99942.20;1704679;81;21060;-57
2021/04/09 10:13:50;;;;;;;11.53;6.20;;;;;;;12.14;42.40;99935.59;1708254;81;21137;-60
2021/04/09 10:16:22;;;;;;;10.48;7.00;;;;;;;11.78;43.16;99939.63;1738251;80;21037;-57
2021/04/09 10:18:54;;;;;;;12.58;6.87;;;;;;;11.50;44.63;99938.22;1730771;80;21153;-60
2021/04/09 10:21:31;;;;;;;8.10;6.20;;;;;;;11.33;44.84;99936.55;1737254;80;21116;-61
2021/04/09 10:24:13;;;;;;;7.72;5.87;;;;;;;11.14;44.64;99945.16;1728332;80;21058;-56
2021/04/09 10:26:46;;;;;;;7.87;5.33;;;;;;;10.93;45.08;99936.78;1731998;80;21125;-62
2021/04/09 10:29:26;;;;;;;7.53;5.85;;;;;;;10.69;45.39;99936.67;1705536;80;21386;-59
2021/04/09 10:31:56;;;;;;;8.20;6.30;;;;;;;10.46;46.15;99937.73;1740459;80;21539;-59
2021/04/09 10:34:26;;;;;;;17.20;6.25;;;;;;;10.25;47.34;99935.12;1732068;80;21216;-59
2021/04/09 10:36:54;;;;;;;10.60;5.67;;;;;;;10.15;48.01;99934.39;1727489;80;21006;-57
2021/04/09 10:39:23;;;;;;;6.03;5.42;;;;;;;10.09;48.55;99929.69;1739618;80;21219;-59
2021/04/09 10:41:56;;;;;;;9.55;6.42;;;;;;;10.13;48.81;99923.09;1730591;80;21262;-58
2021/04/09 10:44:29;;;;;;;10.48;6.53;;;;;;;10.14;48.58;99930.89;1733736;80;20970;-58
2021/04/09 10:47:01;;;;;;;7.97;5.97;;;;;;;10.07;48.25;99934.30;1733818;80;21057;-58
2021/04/09 10:49:32;;;;;;;8.10;6.47;;;;;;;9.89;48.22;99931.70;1735097;80;21093;-57
2021/04/09 10:52:06;;;;;;;9.30;7.67;;;;;;;9.76;48.45;99937.91;1737032;80;21100;-58
2021/04/09 10:54:44;;;;;;;10.53;7.45;;;;;;;9.66;48.62;99931.84;1743805;80;21266;-58
2021/04/09 10:57:16;;;;;;;12.88;6.35;;;;;;;9.60;48.85;99933.29;1762436;80;20938;-57
2021/04/09 10:59:49;;;;;;;13.58;5.65;;;;;;;9.59;48.55;99926.33;1755190;80;21026;-57
2021/04/09 11:02:23;;;;;;;11.15;6.58;;;;;;;9.57;48.46;99924.81;1752483;80;21620;-59
2021/04/09 11:04:57;;;;;;;9.60;6.50;;;;;;;9.56;48.40;99927.12;1756900;80;21156;-57
2021/04/09 11:07:45;;;;;;;8.45;6.47;;;;;;;9.56;48.50;99925.30;1758528;80;21207;-57
2021/04/09 11:10:18;;;;;;;11.15;5.28;;;;;;;9.65;48.65;99924.37;1740793;81;21610;-59
2021/04/09 11:12:47;;;;;;;6.10;4.70;;;;;;;9.78;48.63;99919.48;1744868;80;20965;-59
2021/04/09 11:15:16;;;;;;;9.98;5.37;;;;;;;9.92;47.62;99916.28;1740172;82;21036;-61
2021/04/09 11:17:56;;;;;;;7.08;4.78;;;;;;;9.99;46.84;99920.95;1746213;82;21141;-57
2021/04/09 11:20:29;;;;;;;7.37;5.58;;;;;;;9.94;46.01;99916.11;1744132;80;22189;-61
2021/04/09 11:23:13;;;;;;;5.35;4.50;;;;;;;9.88;45.95;99913.58;1746410;80;21100;-60
2021/04/09 11:25:45;;;;;;;8.83;4.17;;;;;;;9.93;46.07;99907.82;1744324;82;21008;-61
2021/04/09 11:28:28;;;;;;;6.33;4.30;;;;;;;10.05;45.91;99898.59;1746761;80;21227;-57
2021/04/09 11:31:03;;;;;;;8.50;3.92;;;;;;;10.10;45.15;99899.44;1742536;82;21543;-57
2021/04/09 11:33:39;;;;;;;8.53;4.37;;;;;;;10.21;44.56;99896.06;1747037;80;22402;-58
2021/04/09 11:36:24;;;;;;;5.10;4.22;;;;;;;10.42;43.96;99899.66;1743277;80;21175;-59
2021/04/09 11:39:17;;;;;;;4.83;3.45;;;;;;;10.73;43.19;99902.61;1746748;80;21092;-57
2021/04/09 11:42:01;;;;;;;6.65;3.92;;;;;;;10.96;42.84;99896.53;1745382;80;20994;-57
2021/04/09 11:44:39;;;;;;;6.03;3.92;;;;;;;11.15;42.51;99891.41;1746069;80;21178;-59
2021/04/09 11:47:23;;;;;;;13.10;4.00;;;;;;;11.31;41.79;99886.61;1744141;82;21371;-59
2021/04/09 11:50:15;;;;;;;6.72;3.40;;;;;;;11.39;41.53;99885.28;1739701;80;21151;-58